This is the latest recevied weather packets stored in our database for station/object WW5JC. If no packets are shown the sender has not sent any weather packets the latest 10 day(s).
| Time | Temp. | Humidity | Pressure | Rain* | Wind** | Luminosity | Snow |
|---|---|---|---|---|---|---|---|
| 1788537262 | 32.22° C | 64% | 1017.7 hPa | 0 mm | - | 374 W/m² | - |
| 1788536655 | 31.67° C | 66% | 1017.5 hPa | 0 mm | - | 458 W/m² | - |
| 1788535441 | 31.67° C | 69% | 1017.4 hPa | 0 mm | - | 411 W/m² | - |
| 1788534836 | 31.11° C | 72% | 1017.6 hPa | 0 mm | - | 386 W/m² | - |
| 1788534227 | 30.56° C | 74% | 1017.4 hPa | 0 mm | - | 358 W/m² | - |
| 1788533012 | 29.44° C | 78% | 1017.4 hPa | 0 mm | - | 303 W/m² | - |
| 1788532702 | 30° C | 78% | 1017.4 hPa | 0 mm | - | 285 W/m² | - |
| 1788532398 | 29.44° C | 80% | 1017.6 hPa | 0 mm | - | 272 W/m² | - |
| 1788532095 | 28.89° C | 83% | 1017.5 hPa | 0 mm | - | 178 W/m² | - |
| 1788531790 | 28.89° C | 82% | 1017.5 hPa | 0 mm | - | 243 W/m² | - |
| 1788531490 | 28.33° C | 83% | 1017.3 hPa | 0 mm | - | 230 W/m² | - |
| 1788531185 | 28.33° C | 84% | 1017.2 hPa | 0 mm | - | 50 W/m² | - |
| 1788530576 | 27.78° C | 84% | 1017.2 hPa | 0 mm | - | 44 W/m² | - |
| 1788529970 | 27.22° C | 86% | 1017.2 hPa | 0 mm | - | 43 W/m² | - |
| 1788529366 | 26.67° C | 86% | 1017.3 hPa | 0 mm | - | 42 W/m² | - |
| 1788529061 | 26.67° C | 87% | 1017.4 hPa | 0 mm | - | 42 W/m² | - |
| 1788528757 | 26.67° C | 87% | 1017.3 hPa | 0 mm | - | 40 W/m² | - |
| 1788528456 | 26.11° C | 87% | 1017 hPa | 0 mm | - | 89 W/m² | - |
| 1788527850 | 25.56° C | 88% | 1017.1 hPa | 0 mm | - | 44 W/m² | - |
| 1788527547 | 25.56° C | 88% | 1017.2 hPa | 0 mm | - | 77 W/m² | - |
| 1788525423 | 23.33° C | 93% | 1017.1 hPa | 0 mm | - | 24 W/m² | - |
| 1788524813 | 22.78° C | 94% | 1017 hPa | 0 mm | - | 19 W/m² | - |
| 1788524508 | 22.78° C | 94% | 1016.8 hPa | 0 mm | - | 16 W/m² | - |
| 1788524203 | 22.78° C | 94% | 1016.9 hPa | 0 mm | - | 13 W/m² | - |
| 1788523595 | 22.78° C | 94% | 1016.9 hPa | 0 mm | - | 7 W/m² | - |
* Rain latest hour (hover to see other rain measurements)
** Current wind speed in m/s (hover to see current wind gust speed)